Somerset, Virginia
Current Conditions -  °F | °C
As of 1:15 AM on Saturday 29 Nov 2014 (Local Time) from KGVE Reporting Station
Clear Clear  
Wind Chill: 26°   Ceiling: Unl
Heat Index: 26°   Visibility: 10mi
Dew Point: 23°   Wind: 0mph
Humidity: 87%   Direction: NA
Pressure: 30.28"   Gusts: NA
Location:  38.21°N, 78.22°W
Report Text: KGVE 290615Z AUTO 00000KT 10SM CLR M03/M05 A3028 RMK AO1 T10311050
Loading
Personal Weather Stations






























Interactive Weather Map New forecast layout! Learn more

10-Day Weather Forecast

Advertisements
Track Severe Weather on mobile